Dades meteomassalio
Diari Summary for Abril 5, 2017 Units:  Metric    English   Both
« Previous Day
Next Day »
Diari Semanal Mensual Anual Personalitzat
  Maxima: Minima: Mijana:
Temperatura: 17.7 °C 9.1 °C 12.2 °C
Rosada: 8.4 °C 3.7 °C 6 °C
Humitat: 81 % 48 % 67 %
Velocitat del vent: 33.3 km/h 0.0 km/h 17.1 km/h
Racha vent: 33.3 km/h - -
Vent:- - WNW
Pressio: 1023.2 hPa 1018.8 hPa -
Pluja: 0.0 mm    
Historical Graphs
 
 
Tabular Data for Abril 5, 2017
Time Temperature Dew Point Pressure Wind Wind Speed Wind Gust Humidity Rainfall Rate (Hourly) solar Conditions
00:04 12.2 °C 4.9 °C 1023.2 hPa West 18.5 km/h 18.5 km/h 61 % 0.0 mm 0.0 W/m2 CLR
00:09 12.1 °C 5.1 °C 1023.2 hPa WSW 20.4 km/h 20.4 km/h 62 % 0.0 mm 0.0 W/m2 CLR
00:14 12.0 °C 4.9 °C 1023.2 hPa West 11.1 km/h 11.1 km/h 62 % 0.0 mm 0.0 W/m2 CLR
00:19 11.9 °C 4.8 °C 1023.2 hPa Calm     62 % 0.0 mm 0.0 W/m2 CLR
00:24 11.6 °C 4.8 °C 1023.2 hPa West 4.8 km/h 4.8 km/h 63 % 0.0 mm 0.0 W/m2 CLR
00:29 11.4 °C 4.8 °C 1022.9 hPa WSW 5.6 km/h 5.6 km/h 64 % 0.0 mm 0.0 W/m2 CLR
00:34 11.1 °C 4.8 °C 1022.9 hPa WSW 9.3 km/h 9.3 km/h 65 % 0.0 mm 0.0 W/m2 CLR
00:39 11.1 °C 4.8 °C 1022.9 hPa WSW 13.0 km/h 13.0 km/h 65 % 0.0 mm 0.0 W/m2 CLR
00:44 11.1 °C 4.7 °C 1022.9 hPa WSW 5.6 km/h 5.6 km/h 65 % 0.0 mm 0.0 W/m2 CLR
00:49 10.9 °C 4.6 °C 1022.9 hPa WSW 5.6 km/h 5.6 km/h 65 % 0.0 mm 0.0 W/m2 CLR
00:54 11.0 °C 4.7 °C 1022.9 hPa WSW 16.7 km/h 16.7 km/h 65 % 0.0 mm 0.0 W/m2 CLR
00:59 11.1 °C 4.7 °C 1022.9 hPa WSW 18.5 km/h 18.5 km/h 65 % 0.0 mm 0.0 W/m2 CLR
01:04 11.3 °C 4.8 °C 1022.9 hPa West 13.0 km/h 13.0 km/h 64 % 0.0 mm 0.0 W/m2 CLR
01:09 11.3 °C 4.5 °C 1022.9 hPa Calm   0.2 km/h 63 % 0.0 mm 0.0 W/m2 CLR
01:14 11.1 °C 4.6 °C 1022.9 hPa West 12.9 km/h 12.9 km/h 64 % 0.0 mm 0.0 W/m2 CLR
01:19 11.0 °C 4.4 °C 1022.9 hPa WSW 14.5 km/h 14.5 km/h 64 % 0.0 mm 0.0 W/m2 CLR
01:24 10.9 °C 4.2 °C 1022.9 hPa WSW 13.0 km/h 13.0 km/h 63 % 0.0 mm 0.0 W/m2 CLR
01:29 10.9 °C 4.2 °C 1022.9 hPa West 13.0 km/h 13.0 km/h 63 % 0.0 mm 0.0 W/m2 CLR
01:34 10.9 °C 4.1 °C 1022.9 hPa West 6.4 km/h 6.4 km/h 63 % 0.0 mm 0.0 W/m2 CLR
01:39 10.8 °C 4.0 °C 1022.6 hPa SW 11.1 km/h 11.1 km/h 63 % 0.0 mm 0.0 W/m2 CLR
01:44 10.7 °C 4.1 °C 1022.9 hPa WSW 14.8 km/h 14.8 km/h 64 % 0.0 mm 0.0 W/m2 CLR
01:49 10.6 °C 4.0 °C 1022.6 hPa SW 5.6 km/h 5.6 km/h 64 % 0.0 mm 0.0 W/m2 CLR
01:54 10.4 °C 3.9 °C 1022.6 hPa SW 3.7 km/h 3.7 km/h 64 % 0.0 mm 0.0 W/m2 CLR
01:59 10.3 °C 4.0 °C 1022.6 hPa WSW 5.6 km/h 5.6 km/h 65 % 0.0 mm 0.0 W/m2 CLR
02:04 10.2 °C 3.9 °C 1022.6 hPa WSW 5.6 km/h 6.0 km/h 65 % 0.0 mm 0.0 W/m2 CLR
02:09 10.2 °C 3.9 °C 1022.6 hPa WSW 14.5 km/h 14.5 km/h 65 % 0.0 mm 0.0 W/m2 CLR
02:14 10.2 °C 3.7 °C 1022.6 hPa WSW 9.3 km/h 9.3 km/h 64 % 0.0 mm 0.0 W/m2 CLR
02:19 10.2 °C 3.7 °C 1022.2 hPa WSW 11.1 km/h 11.1 km/h 64 % 0.0 mm 0.0 W/m2 CLR
02:24 10.2 °C 3.7 °C 1022.2 hPa West 3.7 km/h 3.7 km/h 64 % 0.0 mm 0.0 W/m2 CLR
02:29 10.2 °C 3.7 °C 1022.2 hPa WSW 1.9 km/h 1.9 km/h 64 % 0.0 mm 0.0 W/m2 CLR
02:34 10.2 °C 3.7 °C 1022.2 hPa WSW 7.4 km/h 7.4 km/h 64 % 0.0 mm 0.0 W/m2 CLR
02:39 10.2 °C 3.7 °C 1022.2 hPa WSW 5.6 km/h 5.6 km/h 64 % 0.0 mm 0.0 W/m2 CLR
02:44 10.2 °C 3.7 °C 1021.9 hPa WSW 5.6 km/h 5.6 km/h 64 % 0.0 mm 0.0 W/m2 CLR
02:49 10.1 °C 3.8 °C 1021.9 hPa WSW 16.1 km/h 16.1 km/h 65 % 0.0 mm 0.0 W/m2 CLR
02:54 10.1 °C 3.8 °C 1021.9 hPa WSW 9.3 km/h 10.1 km/h 65 % 0.0 mm 0.0 W/m2 CLR
02:59 10.2 °C 3.9 °C 1021.9 hPa WSW 14.8 km/h 14.8 km/h 65 % 0.0 mm 0.0 W/m2 CLR
03:04 10.3 °C 3.8 °C 1021.9 hPa West 16.1 km/h 16.1 km/h 64 % 0.0 mm 0.0 W/m2 CLR
03:09 10.4 °C 3.9 °C 1021.9 hPa SW 14.8 km/h 14.8 km/h 64 % 0.0 mm 0.0 W/m2 CLR
03:15 10.4 °C 3.7 °C 1021.9 hPa WSW 18.5 km/h 18.5 km/h 63 % 0.0 mm 0.0 W/m2 CLR
03:20 10.5 °C 3.7 °C 1021.9 hPa West 14.5 km/h 14.5 km/h 63 % 0.0 mm 0.0 W/m2 CLR
03:25 10.5 °C 3.7 °C 1021.6 hPa West 22.5 km/h 22.5 km/h 63 % 0.0 mm 0.0 W/m2 CLR
03:30 10.5 °C 3.7 °C 1021.6 hPa West 16.7 km/h 16.7 km/h 63 % 0.0 mm 0.0 W/m2 CLR
03:35 10.5 °C 3.7 °C 1021.6 hPa West 13.0 km/h 13.0 km/h 63 % 0.0 mm 0.0 W/m2 CLR
03:40 10.4 °C 3.7 °C 1021.6 hPa SW 18.5 km/h 18.5 km/h 63 % 0.0 mm 0.0 W/m2 CLR
03:45 10.4 °C 3.9 °C 1021.6 hPa WSW 16.7 km/h 16.7 km/h 64 % 0.0 mm 0.0 W/m2 CLR
03:50 10.3 °C 3.8 °C 1021.6 hPa WSW 9.7 km/h 9.7 km/h 64 % 0.0 mm 0.0 W/m2 CLR
03:55 10.3 °C 3.8 °C 1021.6 hPa WSW 7.4 km/h 7.4 km/h 64 % 0.0 mm 0.0 W/m2 CLR
04:00 10.2 °C 3.7 °C 1021.6 hPa WSW 18.5 km/h 18.5 km/h 64 % 0.0 mm 0.0 W/m2 CLR
04:05 10.2 °C 3.7 °C 1021.6 hPa West 9.7 km/h 9.7 km/h 64 % 0.0 mm 0.0 W/m2 CLR
04:10 10.1 °C 3.8 °C 1021.6 hPa West 5.6 km/h 5.6 km/h 65 % 0.0 mm 0.0 W/m2 CLR
04:15 10.0 °C 3.9 °C 1021.6 hPa WSW 16.7 km/h 16.7 km/h 66 % 0.0 mm 0.0 W/m2 CLR
04:20 10.0 °C 3.9 °C 1021.2 hPa West 18.5 km/h 18.5 km/h 66 % 0.0 mm 0.0 W/m2 CLR
04:25 10.2 °C 4.1 °C 1021.2 hPa SSW 18.5 km/h 18.5 km/h 66 % 0.0 mm 0.0 W/m2 CLR
04:30 10.1 °C 4.0 °C 1021.2 hPa West 9.7 km/h 11.3 km/h 66 % 0.0 mm 0.0 W/m2 CLR
04:35 10.0 °C 3.9 °C 1021.2 hPa SW 5.6 km/h 5.6 km/h 66 % 0.0 mm 0.0 W/m2 CLR
04:40 9.8 °C 4.0 °C 1021.2 hPa WSW 3.7 km/h 3.7 km/h 67 % 0.0 mm 0.0 W/m2 CLR
04:45 9.8 °C 4.2 °C 1021.2 hPa WSW 14.5 km/h 14.5 km/h 68 % 0.0 mm 0.0 W/m2 CLR
04:50 9.8 °C 4.2 °C 1021.2 hPa SW 3.7 km/h 3.7 km/h 68 % 0.0 mm 0.0 W/m2 CLR
04:55 9.7 °C 4.1 °C 1021.2 hPa WSW 5.6 km/h 5.6 km/h 68 % 0.0 mm 0.0 W/m2 CLR
05:00 9.5 °C 4.1 °C 1021.2 hPa SW 11.3 km/h 11.3 km/h 69 % 0.0 mm 0.0 W/m2 CLR
05:05 9.6 °C 4.6 °C 1020.9 hPa WSW 11.1 km/h 11.1 km/h 71 % 0.0 mm 0.0 W/m2 CLR
05:10 9.7 °C 4.7 °C 1020.9 hPa WSW 18.5 km/h 18.5 km/h 71 % 0.0 mm 0.0 W/m2 CLR
05:15 9.9 °C 4.9 °C 1020.9 hPa West 18.5 km/h 18.5 km/h 71 % 0.0 mm 0.0 W/m2 CLR
05:20 10.1 °C 5.1 °C 1020.9 hPa West 22.2 km/h 22.2 km/h 71 % 0.0 mm 0.0 W/m2 CLR
05:25 10.2 °C 5.2 °C 1020.9 hPa WNW 20.4 km/h 20.4 km/h 71 % 0.0 mm 0.0 W/m2 CLR
05:30 10.3 °C 5.4 °C 1020.9 hPa WNW 18.5 km/h 18.5 km/h 72 % 0.0 mm 0.0 W/m2 CLR
05:35 10.3 °C 5.4 °C 1020.9 hPa West 18.5 km/h 18.5 km/h 72 % 0.0 mm 0.0 W/m2 CLR
05:40 10.3 °C 5.5 °C 1020.9 hPa WSW 18.5 km/h 18.5 km/h 72 % 0.0 mm 0.0 W/m2 CLR
05:45 10.4 °C 5.6 °C 1020.9 hPa West 22.2 km/h 22.2 km/h 72 % 0.0 mm 0.0 W/m2 CLR
05:50 10.3 °C 5.7 °C 1020.5 hPa WNW 18.5 km/h 18.5 km/h 73 % 0.0 mm 0.0 W/m2 CLR
05:55 10.3 °C 5.7 °C 1020.9 hPa WNW 24.1 km/h 24.1 km/h 73 % 0.0 mm 0.0 W/m2 CLR
06:00 10.3 °C 5.7 °C 1020.9 hPa West 18.5 km/h 18.5 km/h 73 % 0.0 mm 0.0 W/m2 CLR
06:05 10.3 °C 5.7 °C 1020.9 hPa West 16.7 km/h 16.7 km/h 73 % 0.0 mm 0.0 W/m2 CLR
06:10 10.3 °C 5.7 °C 1020.9 hPa WNW 17.7 km/h 17.7 km/h 73 % 0.0 mm 0.0 W/m2 CLR
06:15 10.2 °C 5.8 °C 1020.9 hPa NNW 22.2 km/h 22.2 km/h 74 % 0.0 mm 0.0 W/m2 CLR
06:20 10.2 °C 5.7 °C 1020.5 hPa NW 18.5 km/h 18.5 km/h 74 % 0.0 mm 0.0 W/m2 CLR
06:25 10.1 °C 5.7 °C 1020.9 hPa West 18.5 km/h 18.5 km/h 74 % 0.0 mm 0.0 W/m2 CLR
06:30 10.1 °C 5.9 °C 1020.9 hPa West 20.4 km/h 20.4 km/h 75 % 0.0 mm 0.0 W/m2 CLR
06:35 10.0 °C 5.8 °C 1020.9 hPa NW 33.3 km/h 33.3 km/h 75 % 0.0 mm 0.0 W/m2 CLR
06:40 10.0 °C 5.8 °C 1020.9 hPa WNW 29.6 km/h 29.6 km/h 75 % 0.0 mm 0.0 W/m2 CLR
06:45 9.8 °C 5.8 °C 1020.9 hPa NW 22.5 km/h 22.5 km/h 76 % 0.0 mm 0.0 W/m2 CLR
06:50 9.7 °C 5.7 °C 1020.9 hPa NW 27.8 km/h 27.8 km/h 76 % 0.0 mm 0.0 W/m2 CLR
06:55 9.7 °C 5.7 °C 1020.9 hPa WNW 24.1 km/h 24.1 km/h 76 % 0.0 mm 0.0 W/m2 CLR
07:00 9.6 °C 5.8 °C 1020.9 hPa WNW 20.4 km/h 20.4 km/h 77 % 0.0 mm 0.0 W/m2 CLR
07:05 9.5 °C 5.7 °C 1020.9 hPa WNW 19.3 km/h 19.3 km/h 77 % 0.0 mm 0.0 W/m2 CLR
07:10 9.5 °C 5.7 °C 1021.2 hPa WNW 20.4 km/h 20.4 km/h 77 % 0.0 mm 0.0 W/m2 CLR
07:15 9.5 °C 5.7 °C 1021.2 hPa WNW 22.2 km/h 22.2 km/h 77 % 0.0 mm 0.0 W/m2 CLR
07:20 9.5 °C 5.7 °C 1021.2 hPa WNW 25.9 km/h 25.9 km/h 77 % 0.0 mm 0.0 W/m2 CLR
07:25 9.4 °C 5.6 °C 1021.2 hPa WNW 27.8 km/h 27.8 km/h 77 % 0.0 mm 0.0 W/m2 CLR
07:30 9.4 °C 5.6 °C 1021.6 hPa NW 25.7 km/h 25.7 km/h 77 % 0.0 mm 0.0 W/m2 OVC
07:35 9.4 °C 5.6 °C 1021.6 hPa NW 25.9 km/h 25.9 km/h 77 % 0.0 mm 0.0 W/m2 OVC
07:40 9.3 °C 5.5 °C 1021.6 hPa WNW 24.1 km/h 24.1 km/h 77 % 0.0 mm 0.0 W/m2 OVC
07:45 9.3 °C 5.4 °C 1021.6 hPa WNW 20.9 km/h 20.9 km/h 77 % 0.0 mm 5.0 W/m2 OVC
07:50 9.3 °C 5.4 °C 1021.6 hPa West 22.2 km/h 22.2 km/h 77 % 0.0 mm 9.0 W/m2 BKN
07:55 9.3 °C 5.4 °C 1021.9 hPa WNW 22.2 km/h 22.2 km/h 77 % 0.0 mm 11.0 W/m2 BKN
08:00 9.2 °C 5.3 °C 1021.9 hPa WNW 22.2 km/h 22.2 km/h 77 % 0.0 mm 12.0 W/m2 BKN
08:05 9.1 °C 5.3 °C 1021.9 hPa NW 24.1 km/h 24.1 km/h 77 % 0.0 mm 14.0 W/m2 BKN
08:10 9.1 °C 5.2 °C 1021.9 hPa WNW 20.4 km/h 20.4 km/h 77 % 0.0 mm 18.0 W/m2 BKN
08:15 9.1 °C 5.2 °C 1021.9 hPa WNW 24.1 km/h 24.1 km/h 77 % 0.0 mm 39.0 W/m2 BKN
08:20 9.2 °C 5.3 °C 1022.2 hPa WNW 14.8 km/h 14.8 km/h 77 % 0.0 mm 72.0 W/m2 FEW
08:25 9.3 °C 5.3 °C 1022.2 hPa West 18.5 km/h 18.5 km/h 76 % 0.0 mm 90.0 W/m2 CLR
08:30 9.5 °C 5.3 °C 1022.2 hPa WNW 18.5 km/h 18.5 km/h 75 % 0.0 mm 88.0 W/m2 CLR
08:35 9.7 °C 5.4 °C 1022.2 hPa WNW 20.4 km/h 20.4 km/h 75 % 0.0 mm 95.0 W/m2 CLR
08:36 9.7 °C 5.5 °C 1022.2 hPa West 24.1 km/h 24.1 km/h 75 % 0.0 mm 95.0 W/m2 CLR
08:41 9.7 °C 5.3 °C 1022.2 hPa WNW 20.4 km/h 20.4 km/h 74 % 0.0 mm 69.0 W/m2 CLR
08:46 9.7 °C 5.3 °C 1022.2 hPa WNW 24.1 km/h 24.1 km/h 74 % 0.0 mm 51.0 W/m2 FEW
08:51 9.6 °C 5.2 °C 1022.2 hPa WNW 29.6 km/h 29.6 km/h 74 % 0.0 mm 63.0 W/m2 SCT
08:56 9.6 °C 5.2 °C 1022.2 hPa WNW 24.1 km/h 24.1 km/h 74 % 0.0 mm 76.0 W/m2 SCT
09:01 9.6 °C 5.2 °C 1022.2 hPa NW 24.1 km/h 24.1 km/h 74 % 0.0 mm 70.0 W/m2 FEW
09:06 9.7 °C 5.1 °C 1022.2 hPa NW 22.2 km/h 22.2 km/h 73 % 0.0 mm 62.0 W/m2 FEW
09:11 9.7 °C 5.3 °C 1022.2 hPa NW 25.9 km/h 25.9 km/h 74 % 0.0 mm 67.0 W/m2 SCT
09:16 9.7 °C 5.3 °C 1022.2 hPa WNW 24.1 km/h 24.1 km/h 74 % 0.0 mm 69.0 W/m2 FEW
09:21 9.7 °C 5.3 °C 1022.6 hPa WNW 20.4 km/h 20.4 km/h 74 % 0.0 mm 70.0 W/m2 FEW
09:26 9.6 °C 5.2 °C 1022.6 hPa WNW 20.4 km/h 20.4 km/h 74 % 0.0 mm 60.0 W/m2 FEW
09:31 9.6 °C 5.0 °C 1022.6 hPa WNW 24.1 km/h 24.1 km/h 73 % 0.0 mm 51.0 W/m2 SCT
09:36 9.6 °C 5.2 °C 1022.6 hPa WNW 20.4 km/h 20.4 km/h 74 % 0.0 mm 42.0 W/m2 SCT
09:41 9.6 °C 5.2 °C 1022.6 hPa WNW 18.5 km/h 18.5 km/h 74 % 0.0 mm 40.0 W/m2 BKN
09:46 9.6 °C 5.2 °C 1022.2 hPa West 16.7 km/h 16.7 km/h 74 % 0.0 mm 51.0 W/m2 BKN
09:51 9.6 °C 5.2 °C 1022.2 hPa West 18.5 km/h 18.5 km/h 74 % 0.0 mm 44.0 W/m2 SCT
09:56 9.6 °C 5.2 °C 1022.2 hPa WSW 16.7 km/h 16.7 km/h 74 % 0.0 mm 33.0 W/m2 BKN
10:01 9.6 °C 5.2 °C 1022.2 hPa West 13.0 km/h 13.0 km/h 74 % 0.0 mm 33.0 W/m2 BKN
10:06 9.6 °C 5.2 °C 1022.2 hPa West 18.5 km/h 18.5 km/h 74 % 0.0 mm 33.0 W/m2 BKN
10:11 9.6 °C 5.4 °C 1022.2 hPa West 13.0 km/h 13.0 km/h 75 % 0.0 mm 40.0 W/m2 BKN
10:16 9.6 °C 5.4 °C 1022.2 hPa West 20.9 km/h 20.9 km/h 75 % 0.0 mm 70.0 W/m2 BKN
10:21 9.6 °C 5.4 °C 1022.2 hPa West 22.2 km/h 22.2 km/h 75 % 0.0 mm 104.0 W/m2 FEW
10:26 9.7 °C 5.5 °C 1022.2 hPa West 20.4 km/h 20.4 km/h 75 % 0.0 mm 179.0 W/m2 CLR
10:31 9.8 °C 5.6 °C 1022.2 hPa West 24.1 km/h 24.1 km/h 75 % 0.0 mm 181.0 W/m2 CLR
10:36 10.0 °C 5.8 °C 1022.2 hPa West 22.2 km/h 22.2 km/h 75 % 0.0 mm 151.0 W/m2 CLR
10:41 10.0 °C 5.8 °C 1022.2 hPa West 24.1 km/h 24.1 km/h 75 % 0.0 mm 169.0 W/m2 CLR
10:46 10.1 °C 5.6 °C 1022.2 hPa West 20.4 km/h 20.4 km/h 74 % 0.0 mm 199.0 W/m2 CLR
10:51 10.1 °C 5.7 °C 1022.6 hPa West 22.2 km/h 22.2 km/h 74 % 0.0 mm 142.0 W/m2 CLR
10:56 10.1 °C 5.7 °C 1022.6 hPa WNW 20.4 km/h 20.4 km/h 74 % 0.0 mm 111.0 W/m2 CLR
11:01 10.1 °C 5.7 °C 1022.6 hPa WNW 25.9 km/h 25.9 km/h 74 % 0.0 mm 104.0 W/m2 CLR
11:06 10.1 °C 5.7 °C 1022.6 hPa West 22.2 km/h 22.2 km/h 74 % 0.0 mm 102.0 W/m2 CLR
11:11 10.1 °C 5.9 °C 1022.6 hPa WNW 17.7 km/h 17.7 km/h 75 % 0.0 mm 151.0 W/m2 CLR
11:16 10.2 °C 5.7 °C 1022.6 hPa WNW 22.2 km/h 22.2 km/h 74 % 0.0 mm 237.0 W/m2 CLR
11:21 10.4 °C 6.2 °C 1022.6 hPa WNW 18.5 km/h 18.5 km/h 75 % 0.0 mm 220.0 W/m2 CLR
11:26 10.4 °C 6.2 °C 1022.6 hPa NW 22.5 km/h 22.5 km/h 75 % 0.0 mm 165.0 W/m2 CLR
11:31 10.4 °C 6.2 °C 1022.6 hPa WNW 18.5 km/h 18.5 km/h 75 % 0.0 mm 151.0 W/m2 CLR
11:36 10.4 °C 6.2 °C 1022.6 hPa NNW 22.2 km/h 22.2 km/h 75 % 0.0 mm 167.0 W/m2 CLR
11:41 10.4 °C 6.3 °C 1022.6 hPa NW 19.3 km/h 19.3 km/h 76 % 0.0 mm 185.0 W/m2 CLR
11:46 10.3 °C 6.3 °C 1022.9 hPa NW 27.8 km/h 27.8 km/h 76 % 0.0 mm 220.0 W/m2 CLR
11:51 10.3 °C 6.7 °C 1022.9 hPa NNW 24.1 km/h 24.1 km/h 78 % 0.0 mm 232.0 W/m2 CLR
11:56 10.2 °C 6.7 °C 1022.9 hPa NW 24.1 km/h 24.1 km/h 79 % 0.0 mm 295.0 W/m2 CLR
12:01 10.2 °C 6.9 °C 1022.9 hPa WNW 25.9 km/h 25.9 km/h 80 % 0.0 mm 338.0 W/m2 CLR
12:06 10.2 °C 6.9 °C 1022.9 hPa NW 22.2 km/h 22.2 km/h 80 % 0.0 mm 367.0 W/m2 CLR
12:11 10.3 °C 7.1 °C 1022.9 hPa WNW 24.1 km/h 24.1 km/h 80 % 0.0 mm 390.0 W/m2 CLR
12:16 10.5 °C 7.4 °C 1022.9 hPa NW 20.9 km/h 20.9 km/h 81 % 0.0 mm 554.0 W/m2 CLR
12:21 10.7 °C 7.4 °C 1022.9 hPa NW 25.9 km/h 25.9 km/h 80 % 0.0 mm 438.0 W/m2 CLR
12:26 10.6 °C 7.3 °C 1022.9 hPa NW 20.4 km/h 20.4 km/h 80 % 0.0 mm 373.0 W/m2 CLR
12:36 10.8 °C 7.3 °C 1022.9 hPa NW 20.9 km/h 20.9 km/h 79 % 0.0 mm 336.0 W/m2 CLR
12:41 10.8 °C 7.3 °C 1022.9 hPa NW 22.2 km/h 22.2 km/h 79 % 0.0 mm 260.0 W/m2 CLR
12:46 10.9 °C 7.4 °C 1022.9 hPa WNW 18.5 km/h 18.5 km/h 79 % 0.0 mm 257.0 W/m2 CLR
12:51 11.1 °C 7.4 °C 1022.9 hPa NW 22.2 km/h 22.2 km/h 78 % 0.0 mm 239.0 W/m2 CLR
12:56 11.0 °C 7.3 °C 1022.9 hPa WNW 14.8 km/h 14.8 km/h 78 % 0.0 mm 287.0 W/m2 CLR
13:01 11.3 °C 7.8 °C 1022.9 hPa WNW 16.7 km/h 16.7 km/h 79 % 0.0 mm 438.0 W/m2 CLR
13:06 11.7 °C 7.8 °C 1022.6 hPa NNW 18.5 km/h 18.5 km/h 77 % 0.0 mm 438.0 W/m2 CLR
13:11 12.1 °C 8.0 °C 1022.6 hPa NW 18.5 km/h 18.5 km/h 76 % 0.0 mm 647.0 W/m2 CLR
13:12 12.1 °C 8.0 °C 1022.6 hPa NW 16.7 km/h 16.7 km/h 76 % 0.0 mm 647.0 W/m2 CLR
13:17 12.5 °C 8.2 °C 1022.6 hPa NNW 18.5 km/h 18.5 km/h 75 % 0.0 mm 921.0 W/m2 CLR
13:22 12.5 °C 7.8 °C 1022.6 hPa NW 18.5 km/h 18.5 km/h 73 % 0.0 mm 367.0 W/m2 CLR
13:27 12.2 °C 7.3 °C 1022.6 hPa NNW 22.2 km/h 22.2 km/h 72 % 0.0 mm 339.0 W/m2 CLR
13:32 12.3 °C 7.6 °C 1022.6 hPa NNW 16.7 km/h 16.7 km/h 73 % 0.0 mm 587.0 W/m2 CLR
13:37 12.4 °C 7.7 °C 1022.2 hPa NW 18.5 km/h 18.5 km/h 73 % 0.0 mm 568.0 W/m2 CLR
13:42 12.7 °C 8.0 °C 1022.2 hPa NW 17.7 km/h 17.7 km/h 73 % 0.0 mm 610.0 W/m2 CLR
13:47 12.9 °C 7.8 °C 1022.2 hPa NW 18.5 km/h 18.5 km/h 71 % 0.0 mm 615.0 W/m2 CLR
13:52 12.9 °C 7.8 °C 1022.2 hPa NW 13.0 km/h 13.0 km/h 71 % 0.0 mm 531.0 W/m2 CLR
13:57 13.2 °C 7.8 °C 1021.9 hPa NW 14.8 km/h 14.8 km/h 70 % 0.0 mm 617.0 W/m2 CLR
14:02 13.3 °C 7.9 °C 1021.9 hPa WNW 9.7 km/h 9.7 km/h 70 % 0.0 mm 392.0 W/m2 CLR
14:07 13.2 °C 7.6 °C 1021.9 hPa NW 12.9 km/h 12.9 km/h 69 % 0.0 mm 390.0 W/m2 CLR
14:12 13.2 °C 7.4 °C 1021.9 hPa WNW 5.6 km/h 5.6 km/h 68 % 0.0 mm 276.0 W/m2 CLR
14:17 13.1 °C 7.6 °C 1021.9 hPa NW 13.0 km/h 13.0 km/h 69 % 0.0 mm 290.0 W/m2 CLR
14:22 13.2 °C 7.7 °C 1021.9 hPa West 5.6 km/h 5.6 km/h 69 % 0.0 mm 309.0 W/m2 CLR
14:27 13.2 °C 7.6 °C 1021.9 hPa NNW 5.6 km/h 5.6 km/h 69 % 0.0 mm 218.0 W/m2 CLR
14:32 13.2 °C 7.8 °C 1021.9 hPa NW 5.6 km/h 5.6 km/h 70 % 0.0 mm 155.0 W/m2 CLR
14:37 13.1 °C 7.6 °C 1021.9 hPa NW 14.8 km/h 14.8 km/h 69 % 0.0 mm 139.0 W/m2 CLR
14:42 13.1 °C 7.5 °C 1021.9 hPa NW 13.0 km/h 13.0 km/h 69 % 0.0 mm 160.0 W/m2 CLR
14:47 13.1 °C 7.8 °C 1021.9 hPa NW 13.0 km/h 13.0 km/h 70 % 0.0 mm 132.0 W/m2 CLR
14:52 13.2 °C 7.6 °C 1021.6 hPa NNW 5.6 km/h 5.6 km/h 69 % 0.0 mm 123.0 W/m2 CLR
14:57 13.2 °C 7.7 °C 1021.6 hPa NW 11.1 km/h 11.7 km/h 69 % 0.0 mm 163.0 W/m2 CLR
15:02 13.2 °C 7.6 °C 1021.6 hPa NW 16.1 km/h 16.1 km/h 69 % 0.0 mm 181.0 W/m2 CLR
15:07 13.1 °C 7.6 °C 1021.6 hPa NNW 13.0 km/h 13.0 km/h 69 % 0.0 mm 178.0 W/m2 CLR
15:12 13.2 °C 7.7 °C 1021.6 hPa NNW 3.7 km/h 3.7 km/h 69 % 0.0 mm 220.0 W/m2 CLR
15:17 13.3 °C 7.7 °C 1021.6 hPa North 5.6 km/h   69 % 0.0 mm 207.0 W/m2 CLR
15:22 13.4 °C 7.6 °C 1021.6 hPa NW 13.0 km/h 13.0 km/h 68 % 0.0 mm 350.0 W/m2 CLR
15:27 13.6 °C 8.0 °C 1021.2 hPa NNW 3.7 km/h 3.7 km/h 69 % 0.0 mm 306.0 W/m2 CLR
15:32 13.8 °C 7.8 °C 1021.2 hPa NNW 14.8 km/h 14.8 km/h 67 % 0.0 mm 267.0 W/m2 CLR
15:37 13.9 °C 7.8 °C 1021.2 hPa West 11.1 km/h 11.1 km/h 67 % 0.0 mm 260.0 W/m2 CLR
15:42 14.1 °C 8.0 °C 1021.2 hPa SW 9.3 km/h 9.3 km/h 67 % 0.0 mm 397.0 W/m2 CLR
15:47 14.1 °C 8.1 °C 1021.2 hPa West 6.4 km/h 6.4 km/h 67 % 0.0 mm 320.0 W/m2 CLR
15:52 14.2 °C 7.9 °C 1021.2 hPa West 1.9 km/h   66 % 0.0 mm 313.0 W/m2 CLR
15:57 14.3 °C 8.0 °C 1020.9 hPa NW 7.4 km/h 7.4 km/h 66 % 0.0 mm 306.0 W/m2 CLR
16:02 14.4 °C 7.9 °C 1020.9 hPa Calm     65 % 0.0 mm 424.0 W/m2 CLR
16:07 14.6 °C 8.3 °C 1020.9 hPa NNW 16.1 km/h 16.1 km/h 66 % 0.0 mm 399.0 W/m2 CLR
16:12 14.7 °C 8.0 °C 1020.9 hPa NW 4.8 km/h 4.8 km/h 64 % 0.0 mm 378.0 W/m2 CLR
16:17 14.8 °C 7.8 °C 1020.5 hPa WNW 13.0 km/h 13.0 km/h 63 % 0.0 mm 436.0 W/m2 CLR
16:22 14.9 °C 7.9 °C 1020.5 hPa Calm     63 % 0.0 mm 406.0 W/m2 CLR
16:27 15.2 °C 8.0 °C 1020.5 hPa West 1.9 km/h 1.9 km/h 62 % 0.0 mm 378.0 W/m2 CLR
16:32 15.3 °C 8.3 °C 1020.5 hPa West 3.2 km/h 3.2 km/h 63 % 0.0 mm 262.0 W/m2 CLR
16:38 15.2 °C 8.0 °C 1020.2 hPa NW 7.4 km/h 7.4 km/h 62 % 0.0 mm 267.0 W/m2 CLR
16:43 15.6 °C 8.1 °C 1020.2 hPa West 5.6 km/h 5.6 km/h 61 % 0.0 mm 795.0 W/m2 CLR
16:48 15.9 °C 8.4 °C 1020.2 hPa West 5.6 km/h 5.6 km/h 61 % 0.0 mm 729.0 W/m2 CLR
16:53 15.9 °C 7.9 °C 1019.9 hPa West 5.6 km/h   59 % 0.0 mm 427.0 W/m2 CLR
16:58 16.1 °C 8.1 °C 1019.9 hPa NNW 20.9 km/h 20.9 km/h 59 % 0.0 mm 506.0 W/m2 CLR
17:03 16.2 °C 8.2 °C 1019.9 hPa West 11.1 km/h   59 % 0.0 mm 582.0 W/m2 CLR
17:08 16.5 °C 8.2 °C 1019.9 hPa West 7.4 km/h 7.4 km/h 58 % 0.0 mm 570.0 W/m2 CLR
17:13 16.6 °C 8.3 °C 1019.9 hPa WNW 20.4 km/h 20.4 km/h 58 % 0.0 mm 555.0 W/m2 CLR
17:18 16.5 °C 8.2 °C 1019.9 hPa WNW 14.8 km/h 14.8 km/h 58 % 0.0 mm 540.0 W/m2 CLR
17:23 16.7 °C 7.6 °C 1019.5 hPa WSW 18.5 km/h 18.5 km/h 55 % 0.0 mm 520.0 W/m2 CLR
17:28 16.7 °C 7.9 °C 1019.5 hPa NW 18.5 km/h 18.5 km/h 56 % 0.0 mm 510.0 W/m2 CLR
17:33 16.8 °C 7.7 °C 1019.5 hPa NW 18.5 km/h   55 % 0.0 mm 489.0 W/m2 CLR
17:38 17.0 °C 8.2 °C 1019.5 hPa NW 16.7 km/h 16.7 km/h 56 % 0.0 mm 476.0 W/m2 CLR
17:43 17.0 °C 7.6 °C 1019.5 hPa NW 20.4 km/h 20.4 km/h 54 % 0.0 mm 461.0 W/m2 CLR
17:48 17.0 °C 7.6 °C 1019.5 hPa NNW 16.7 km/h 16.7 km/h 54 % 0.0 mm 450.0 W/m2 CLR
17:53 17.2 °C 7.8 °C 1019.5 hPa West 9.3 km/h 9.3 km/h 54 % 0.0 mm 439.0 W/m2 CLR
17:58 17.1 °C 7.7 °C 1019.5 hPa West 16.7 km/h 16.7 km/h 54 % 0.0 mm 424.0 W/m2 CLR
18:03 17.2 °C 8.1 °C 1019.2 hPa WNW 18.5 km/h 18.5 km/h 55 % 0.0 mm 410.0 W/m2 CLR
18:08 17.2 °C 8.1 °C 1019.2 hPa NW 12.9 km/h 12.9 km/h 55 % 0.0 mm 390.0 W/m2 CLR
18:13 17.4 °C 7.7 °C 1019.2 hPa NW 18.5 km/h 18.5 km/h 53 % 0.0 mm 374.0 W/m2 CLR
18:18 17.4 °C 8.0 °C 1019.2 hPa WNW 20.9 km/h 20.9 km/h 54 % 0.0 mm 357.0 W/m2 CLR
18:23 17.4 °C 7.7 °C 1019.2 hPa NW 13.0 km/h 13.0 km/h 53 % 0.0 mm 345.0 W/m2 CLR
18:28 17.6 °C 7.6 °C 1019.2 hPa WNW 18.5 km/h 18.5 km/h 52 % 0.0 mm 327.0 W/m2 CLR
18:33 17.5 °C 7.6 °C 1019.2 hPa WNW 18.5 km/h 18.5 km/h 52 % 0.0 mm 313.0 W/m2 CLR
18:38 17.5 °C 7.6 °C 1019.2 hPa WNW 12.9 km/h 12.9 km/h 52 % 0.0 mm 292.0 W/m2 CLR
18:43 17.5 °C 7.8 °C 1019.2 hPa NW 3.7 km/h 3.7 km/h 53 % 0.0 mm 278.0 W/m2 CLR
18:48 17.6 °C 7.6 °C 1018.8 hPa WNW 18.5 km/h 18.5 km/h 52 % 0.0 mm 264.0 W/m2 CLR
18:53 17.7 °C 7.1 °C 1018.8 hPa NW 9.7 km/h 9.7 km/h 50 % 0.0 mm 246.0 W/m2 CLR
18:58 17.6 °C 7.1 °C 1018.8 hPa West 14.8 km/h 14.8 km/h 50 % 0.0 mm 225.0 W/m2 CLR
19:03 17.7 °C 7.1 °C 1018.8 hPa WNW 14.8 km/h 14.8 km/h 50 % 0.0 mm 204.0 W/m2 CLR
19:08 17.6 °C 7.3 °C 1018.8 hPa WNW 14.8 km/h 14.8 km/h 51 % 0.0 mm 186.0 W/m2 CLR
19:13 17.7 °C 7.1 °C 1018.8 hPa WNW 14.5 km/h 14.5 km/h 50 % 0.0 mm 84.0 W/m2 CLR
19:18 17.5 °C 6.3 °C 1018.8 hPa WNW 5.6 km/h 5.6 km/h 48 % 0.0 mm 37.0 W/m2 FEW
19:23 17.3 °C 6.5 °C 1018.8 hPa NNW 14.5 km/h 14.5 km/h 49 % 0.0 mm 132.0 W/m2 FEW
19:28 17.4 °C 6.6 °C 1019.2 hPa NW 3.7 km/h 3.7 km/h 49 % 0.0 mm 116.0 W/m2 CLR
19:33 17.5 °C 6.3 °C 1019.2 hPa NNW 19.3 km/h 19.3 km/h 48 % 0.0 mm 98.0 W/m2 CLR
19:38 17.4 °C 6.3 °C 1019.2 hPa NNW 27.8 km/h 27.8 km/h 48 % 0.0 mm 83.0 W/m2 FEW
19:43 17.3 °C 6.2 °C 1019.2 hPa NNW 18.5 km/h 18.5 km/h 48 % 0.0 mm 58.0 W/m2 FEW
19:48 17.2 °C 6.1 °C 1019.2 hPa NNW 24.1 km/h 24.1 km/h 48 % 0.0 mm 49.0 W/m2 SCT
19:53 17.1 °C 5.9 °C 1019.2 hPa NW 17.7 km/h 17.7 km/h 48 % 0.0 mm 39.0 W/m2 BKN
19:58 16.9 °C 6.1 °C 1019.2 hPa NW 18.5 km/h 18.5 km/h 49 % 0.0 mm 30.0 W/m2 BKN
20:04 16.8 °C 6.0 °C 1019.5 hPa NW 18.5 km/h 18.5 km/h 49 % 0.0 mm 21.0 W/m2 BKN
20:09 16.6 °C 5.8 °C 1019.5 hPa NW 18.5 km/h 18.5 km/h 49 % 0.0 mm 16.0 W/m2 BKN
20:14 16.4 °C 5.9 °C 1019.5 hPa NNW 18.5 km/h 18.5 km/h 50 % 0.0 mm 14.0 W/m2 BKN
20:19 16.2 °C 6.1 °C 1019.5 hPa WNW 18.5 km/h 18.5 km/h 51 % 0.0 mm 12.0 W/m2 BKN
20:24 16.1 °C 5.9 °C 1019.5 hPa NNW 22.2 km/h 22.2 km/h 51 % 0.0 mm 9.0 W/m2 BKN
20:29 16.0 °C 6.2 °C 1019.9 hPa NW 27.4 km/h 27.4 km/h 52 % 0.0 mm 5.0 W/m2 OVC
20:34 15.9 °C 6.1 °C 1019.9 hPa NNW 22.5 km/h 22.5 km/h 52 % 0.0 mm 0.0 W/m2 OVC
20:39 15.8 °C 6.3 °C 1019.9 hPa WNW 24.1 km/h 24.1 km/h 53 % 0.0 mm 0.0 W/m2 CLR
20:44 15.7 °C 6.2 °C 1019.9 hPa NNW 27.8 km/h 27.8 km/h 53 % 0.0 mm 0.0 W/m2 CLR
20:49 15.6 °C 6.3 °C 1019.9 hPa NW 24.1 km/h 24.1 km/h 54 % 0.0 mm 0.0 W/m2 CLR
20:54 15.5 °C 6.2 °C 1019.9 hPa WNW 18.5 km/h 18.5 km/h 54 % 0.0 mm 0.0 W/m2 CLR
20:59 15.4 °C 6.2 °C 1019.9 hPa WNW 20.4 km/h 20.4 km/h 54 % 0.0 mm 0.0 W/m2 CLR
21:04 15.3 °C 6.1 °C 1019.9 hPa NW 27.4 km/h 27.4 km/h 54 % 0.0 mm 0.0 W/m2 CLR
21:09 15.2 °C 5.9 °C 1019.9 hPa NW 17.7 km/h 17.7 km/h 54 % 0.0 mm 0.0 W/m2 CLR
21:14 15.0 °C 6.0 °C 1020.2 hPa WNW 27.8 km/h 27.8 km/h 55 % 0.0 mm 0.0 W/m2 CLR
21:19 14.8 °C 6.1 °C 1020.2 hPa WNW 27.8 km/h 27.8 km/h 56 % 0.0 mm 0.0 W/m2 CLR
21:24 14.7 °C 6.2 °C 1020.5 hPa NNW 25.9 km/h 25.9 km/h 57 % 0.0 mm 0.0 W/m2 CLR
21:29 14.5 °C 6.3 °C 1020.5 hPa NW 29.6 km/h 29.6 km/h 58 % 0.0 mm 0.0 W/m2 CLR
21:34 14.4 °C 6.2 °C 1020.5 hPa WNW 24.1 km/h 24.1 km/h 58 % 0.0 mm 0.0 W/m2 CLR
21:39 14.3 °C 6.4 °C 1020.9 hPa WNW 16.7 km/h 16.7 km/h 59 % 0.0 mm 0.0 W/m2 CLR
21:44 14.1 °C 6.4 °C 1020.5 hPa WNW 27.8 km/h 27.8 km/h 60 % 0.0 mm 0.0 W/m2 CLR
21:49 13.9 °C 6.6 °C 1020.5 hPa NW 22.5 km/h 22.5 km/h 61 % 0.0 mm 0.0 W/m2 CLR
21:54 13.8 °C 6.4 °C 1020.5 hPa WNW 22.2 km/h 22.2 km/h 61 % 0.0 mm 0.0 W/m2 CLR
21:59 13.7 °C 6.3 °C 1020.9 hPa WNW 27.8 km/h 27.8 km/h 61 % 0.0 mm 0.0 W/m2 CLR
22:04 13.5 °C 6.3 °C 1020.9 hPa WNW 29.6 km/h 29.6 km/h 62 % 0.0 mm 0.0 W/m2 CLR
22:09 13.3 °C 6.2 °C 1020.9 hPa WNW 31.5 km/h 31.5 km/h 62 % 0.0 mm 0.0 W/m2 CLR
22:14 13.2 °C 6.3 °C 1020.9 hPa WNW 29.6 km/h 29.6 km/h 63 % 0.0 mm 0.0 W/m2 CLR
22:19 13.1 °C 6.2 °C 1020.9 hPa WNW 27.8 km/h 27.8 km/h 63 % 0.0 mm 0.0 W/m2 CLR
22:24 12.9 °C 6.2 °C 1020.9 hPa West 27.8 km/h 27.8 km/h 64 % 0.0 mm 0.0 W/m2 CLR
22:29 12.8 °C 6.2 °C 1020.9 hPa West 20.4 km/h 20.4 km/h 64 % 0.0 mm 0.0 W/m2 CLR
22:34 12.8 °C 6.1 °C 1021.2 hPa NW 22.2 km/h 22.2 km/h 64 % 0.0 mm 0.0 W/m2 CLR
22:39 12.7 °C 6.3 °C 1021.2 hPa WNW 18.5 km/h 18.5 km/h 65 % 0.0 mm 0.0 W/m2 CLR
22:44 12.6 °C 6.2 °C 1020.9 hPa West 27.8 km/h 27.8 km/h 65 % 0.0 mm 0.0 W/m2 CLR
22:49 12.5 °C 6.1 °C 1020.9 hPa WNW 22.2 km/h 22.2 km/h 65 % 0.0 mm 0.0 W/m2 CLR
22:54 12.4 °C 6.3 °C 1021.2 hPa NW 20.4 km/h 20.4 km/h 66 % 0.0 mm 0.0 W/m2 CLR
22:59 12.4 °C 6.3 °C 1021.2 hPa West 14.8 km/h 14.8 km/h 66 % 0.0 mm 0.0 W/m2 CLR
23:04 12.4 °C 6.3 °C 1021.2 hPa West 31.5 km/h 31.5 km/h 66 % 0.0 mm 0.0 W/m2 CLR
23:09 12.3 °C 6.2 °C 1021.2 hPa NW 31.5 km/h 31.5 km/h 66 % 0.0 mm 0.0 W/m2 CLR
23:14 12.3 °C 6.3 °C 1021.2 hPa WNW 18.5 km/h 18.5 km/h 67 % 0.0 mm 0.0 W/m2 CLR
23:19 12.2 °C 6.3 °C 1021.2 hPa WNW 22.2 km/h 22.2 km/h 67 % 0.0 mm 0.0 W/m2 CLR
23:24 12.2 °C 6.2 °C 1021.6 hPa West 22.2 km/h 22.2 km/h 67 % 0.0 mm 0.0 W/m2 CLR
23:29 12.2 °C 6.2 °C 1021.6 hPa West 20.4 km/h 20.4 km/h 67 % 0.0 mm 0.0 W/m2 CLR
23:34 12.1 °C 6.4 °C 1021.6 hPa WNW 14.8 km/h 14.8 km/h 68 % 0.0 mm 0.0 W/m2 CLR
23:39 12.1 °C 6.3 °C 1021.6 hPa WSW 22.2 km/h 22.2 km/h 68 % 0.0 mm 0.0 W/m2 CLR
23:44 12.0 °C 6.3 °C 1021.6 hPa West 25.9 km/h 25.9 km/h 68 % 0.0 mm 0.0 W/m2 CLR
23:49 11.9 °C 6.4 °C 1021.2 hPa West 20.4 km/h 20.4 km/h 69 % 0.0 mm 0.0 W/m2 CLR
23:54 11.8 °C 6.3 °C 1021.2 hPa West 22.2 km/h 22.2 km/h 69 % 0.0 mm 0.0 W/m2 CLR
23:59 11.7 °C 6.2 °C 1021.6 hPa West 19.3 km/h 19.3 km/h 69 % 0.0 mm 0.0 W/m2 CLR
Lo Temps de Massalio
Compliments of Weather Underground - 1.25 mb